sensor_id;sensor_type;location;lat;lon;timestamp;P1;durP1;ratioP1;P2;durP2;ratioP2
66739;SDS011;53653;52.188;8.602;2022-09-27T00:01:03;26.58;;;13.73;;
66739;SDS011;53653;52.188;8.602;2022-09-27T00:03:31;24.42;;;13.25;;
66739;SDS011;53653;52.188;8.602;2022-09-27T00:06:03;24.93;;;12.40;;
66739;SDS011;53653;52.188;8.602;2022-09-27T00:08:32;25.15;;;13.82;;
66739;SDS011;53653;52.188;8.602;2022-09-27T00:11:03;30.30;;;13.93;;
66739;SDS011;53653;52.188;8.602;2022-09-27T00:13:30;24.70;;;13.30;;
66739;SDS011;53653;52.188;8.602;2022-09-27T00:15:59;22.97;;;11.77;;
66739;SDS011;53653;52.188;8.602;2022-09-27T00:18:28;18.67;;;9.38;;
66739;SDS011;53653;52.188;8.602;2022-09-27T00:20:55;14.73;;;7.85;;
66739;SDS011;53653;52.188;8.602;2022-09-27T00:23:20;21.20;;;9.03;;
66739;SDS011;53653;52.188;8.602;2022-09-27T00:25:55;14.53;;;7.83;;
66739;SDS011;53653;52.188;8.602;2022-09-27T00:28:24;14.33;;;7.23;;
66739;SDS011;53653;52.188;8.602;2022-09-27T00:30:50;15.23;;;8.27;;
66739;SDS011;53653;52.188;8.602;2022-09-27T00:33:16;15.40;;;8.30;;
66739;SDS011;53653;52.188;8.602;2022-09-27T00:35:41;14.23;;;6.93;;
66739;SDS011;53653;52.188;8.602;2022-09-27T00:38:07;12.52;;;6.38;;
66739;SDS011;53653;52.188;8.602;2022-09-27T00:40:33;14.53;;;6.60;;
66739;SDS011;53653;52.188;8.602;2022-09-27T00:42:58;13.67;;;6.83;;
66739;SDS011;53653;52.188;8.602;2022-09-27T00:45:24;14.30;;;6.30;;
66739;SDS011;53653;52.188;8.602;2022-09-27T00:47:59;13.50;;;7.23;;
66739;SDS011;53653;52.188;8.602;2022-09-27T00:50:38;12.77;;;6.38;;
66739;SDS011;53653;52.188;8.602;2022-09-27T00:56:00;13.10;;;6.30;;
66739;SDS011;53653;52.188;8.602;2022-09-27T00:58:34;12.27;;;6.20;;
66739;SDS011;53653;52.188;8.602;2022-09-27T01:01:04;13.95;;;7.18;;
66739;SDS011;53653;52.188;8.602;2022-09-27T01:03:45;13.70;;;7.30;;
66739;SDS011;53653;52.188;8.602;2022-09-27T01:06:17;14.98;;;7.72;;
66739;SDS011;53653;52.188;8.602;2022-09-27T01:08:44;15.97;;;7.80;;
66739;SDS011;53653;52.188;8.602;2022-09-27T01:21:52;17.02;;;7.25;;
66739;SDS011;53653;52.188;8.602;2022-09-27T01:43:54;14.82;;;6.93;;
66739;SDS011;53653;52.188;8.602;2022-09-27T01:46:26;17.63;;;7.00;;
66739;SDS011;53653;52.188;8.602;2022-09-27T01:49:01;16.00;;;6.70;;
66739;SDS011;53653;52.188;8.602;2022-09-27T01:51:42;15.27;;;6.53;;
66739;SDS011;53653;52.188;8.602;2022-09-27T01:54:14;17.10;;;7.20;;
66739;SDS011;53653;52.188;8.602;2022-09-27T01:56:50;19.30;;;6.68;;
66739;SDS011;53653;52.188;8.602;2022-09-27T01:59:23;16.23;;;6.38;;
66739;SDS011;53653;52.188;8.602;2022-09-27T02:01:53;18.23;;;7.05;;
66739;SDS011;53653;52.188;8.602;2022-09-27T02:04:24;20.17;;;6.80;;
66739;SDS011;53653;52.188;8.602;2022-09-27T02:06:54;16.80;;;6.15;;
66739;SDS011;53653;52.188;8.602;2022-09-27T02:09:37;20.15;;;6.65;;
66739;SDS011;53653;52.188;8.602;2022-09-27T02:12:08;16.52;;;5.88;;
66739;SDS011;53653;52.188;8.602;2022-09-27T02:14:43;13.65;;;5.65;;
66739;SDS011;53653;52.188;8.602;2022-09-27T02:30:46;13.40;;;4.50;;
66739;SDS011;53653;52.188;8.602;2022-09-27T02:33:11;9.88;;;4.10;;
66739;SDS011;53653;52.188;8.602;2022-09-27T02:35:37;10.67;;;3.90;;
66739;SDS011;53653;52.188;8.602;2022-09-27T02:38:03;11.10;;;4.13;;
66739;SDS011;53653;52.188;8.602;2022-09-27T02:40:32;10.60;;;4.10;;
66739;SDS011;53653;52.188;8.602;2022-09-27T02:43:05;12.57;;;3.88;;
66739;SDS011;53653;52.188;8.602;2022-09-27T02:54:46;14.00;;;4.03;;
66739;SDS011;53653;52.188;8.602;2022-09-27T02:57:29;11.70;;;4.13;;
66739;SDS011;53653;52.188;8.602;2022-09-27T03:00:19;13.57;;;4.13;;
66739;SDS011;53653;52.188;8.602;2022-09-27T03:05:39;11.17;;;4.77;;
66739;SDS011;53653;52.188;8.602;2022-09-27T03:08:08;12.68;;;4.43;;
66739;SDS011;53653;52.188;8.602;2022-09-27T03:10:35;11.82;;;4.70;;
66739;SDS011;53653;52.188;8.602;2022-09-27T03:13:00;11.77;;;4.53;;
66739;SDS011;53653;52.188;8.602;2022-09-27T03:15:26;12.18;;;5.28;;
66739;SDS011;53653;52.188;8.602;2022-09-27T03:17:51;16.57;;;5.33;;
66739;SDS011;53653;52.188;8.602;2022-09-27T03:20:17;17.27;;;5.47;;
66739;SDS011;53653;52.188;8.602;2022-09-27T03:22:42;17.40;;;5.93;;
66739;SDS011;53653;52.188;8.602;2022-09-27T03:25:08;11.63;;;5.40;;
66739;SDS011;53653;52.188;8.602;2022-09-27T03:27:33;17.20;;;5.07;;
66739;SDS011;53653;52.188;8.602;2022-09-27T03:29:59;13.27;;;4.30;;
66739;SDS011;53653;52.188;8.602;2022-09-27T03:32:25;14.27;;;4.57;;
66739;SDS011;53653;52.188;8.602;2022-09-27T03:34:51;12.20;;;4.10;;
66739;SDS011;53653;52.188;8.602;2022-09-27T03:37:19;10.60;;;3.70;;
66739;SDS011;53653;52.188;8.602;2022-09-27T03:39:44;13.53;;;3.87;;
66739;SDS011;53653;52.188;8.602;2022-09-27T03:42:10;12.82;;;3.97;;
66739;SDS011;53653;52.188;8.602;2022-09-27T03:44:35;13.50;;;3.27;;
66739;SDS011;53653;52.188;8.602;2022-09-27T03:47:01;12.73;;;3.70;;
66739;SDS011;53653;52.188;8.602;2022-09-27T03:49:26;14.70;;;3.30;;
66739;SDS011;53653;52.188;8.602;2022-09-27T03:51:51;14.03;;;3.40;;
66739;SDS011;53653;52.188;8.602;2022-09-27T03:54:17;12.83;;;3.30;;
66739;SDS011;53653;52.188;8.602;2022-09-27T03:56:43;10.07;;;3.50;;
66739;SDS011;53653;52.188;8.602;2022-09-27T03:59:08;12.47;;;3.27;;
66739;SDS011;53653;52.188;8.602;2022-09-27T04:01:35;12.70;;;3.75;;
66739;SDS011;53653;52.188;8.602;2022-09-27T04:04:02;9.50;;;2.75;;
66739;SDS011;53653;52.188;8.602;2022-09-27T04:06:29;12.98;;;3.97;;
66739;SDS011;53653;52.188;8.602;2022-09-27T04:08:54;10.13;;;2.67;;
66739;SDS011;53653;52.188;8.602;2022-09-27T04:11:20;11.00;;;3.07;;
66739;SDS011;53653;52.188;8.602;2022-09-27T04:13:47;9.77;;;2.90;;
66739;SDS011;53653;52.188;8.602;2022-09-27T04:16:13;10.47;;;2.90;;
66739;SDS011;53653;52.188;8.602;2022-09-27T04:18:40;9.15;;;3.22;;
66739;SDS011;53653;52.188;8.602;2022-09-27T04:21:06;7.72;;;3.00;;
66739;SDS011;53653;52.188;8.602;2022-09-27T04:23:31;10.60;;;2.93;;
66739;SDS011;53653;52.188;8.602;2022-09-27T04:25:57;15.85;;;3.33;;
66739;SDS011;53653;52.188;8.602;2022-09-27T04:28:23;12.30;;;2.80;;
66739;SDS011;53653;52.188;8.602;2022-09-27T04:30:48;10.53;;;2.87;;
66739;SDS011;53653;52.188;8.602;2022-09-27T04:33:14;12.32;;;3.38;;
66739;SDS011;53653;52.188;8.602;2022-09-27T04:35:39;10.17;;;2.63;;
66739;SDS011;53653;52.188;8.602;2022-09-27T04:38:24;11.95;;;2.47;;
66739;SDS011;53653;52.188;8.602;2022-09-27T04:40:50;10.83;;;2.50;;
66739;SDS011;53653;52.188;8.602;2022-09-27T04:43:15;7.33;;;2.30;;
66739;SDS011;53653;52.188;8.602;2022-09-27T04:45:44;8.02;;;2.50;;
66739;SDS011;53653;52.188;8.602;2022-09-27T04:48:10;8.73;;;2.63;;
66739;SDS011;53653;52.188;8.602;2022-09-27T04:50:35;7.37;;;2.90;;
66739;SDS011;53653;52.188;8.602;2022-09-27T04:53:01;9.48;;;2.42;;
66739;SDS011;53653;52.188;8.602;2022-09-27T04:55:27;8.98;;;2.83;;
66739;SDS011;53653;52.188;8.602;2022-09-27T04:57:53;9.13;;;2.90;;
66739;SDS011;53653;52.188;8.602;2022-09-27T05:00:18;8.43;;;2.60;;
66739;SDS011;53653;52.188;8.602;2022-09-27T05:02:45;13.07;;;3.72;;
66739;SDS011;53653;52.188;8.602;2022-09-27T05:05:12;12.45;;;2.70;;
66739;SDS011;53653;52.188;8.602;2022-09-27T05:07:38;9.38;;;2.90;;
66739;SDS011;53653;52.188;8.602;2022-09-27T05:10:04;9.47;;;2.70;;
66739;SDS011;53653;52.188;8.602;2022-09-27T05:12:30;10.20;;;2.55;;
66739;SDS011;53653;52.188;8.602;2022-09-27T05:14:55;8.63;;;2.27;;
66739;SDS011;53653;52.188;8.602;2022-09-27T05:17:21;13.47;;;3.27;;
66739;SDS011;53653;52.188;8.602;2022-09-27T05:19:47;7.63;;;2.85;;
66739;SDS011;53653;52.188;8.602;2022-09-27T05:22:13;8.27;;;2.90;;
66739;SDS011;53653;52.188;8.602;2022-09-27T05:24:39;9.43;;;2.57;;
66739;SDS011;53653;52.188;8.602;2022-09-27T05:27:04;6.28;;;2.20;;
66739;SDS011;53653;52.188;8.602;2022-09-27T05:29:33;11.77;;;2.73;;
66739;SDS011;53653;52.188;8.602;2022-09-27T05:31:59;10.68;;;3.30;;
66739;SDS011;53653;52.188;8.602;2022-09-27T05:34:27;11.88;;;2.67;;
66739;SDS011;53653;52.188;8.602;2022-09-27T05:36:53;7.63;;;2.80;;
66739;SDS011;53653;52.188;8.602;2022-09-27T05:39:18;10.90;;;2.43;;
66739;SDS011;53653;52.188;8.602;2022-09-27T05:41:44;6.73;;;2.40;;
66739;SDS011;53653;52.188;8.602;2022-09-27T05:44:10;8.43;;;1.95;;
66739;SDS011;53653;52.188;8.602;2022-09-27T05:46:37;8.68;;;2.28;;
66739;SDS011;53653;52.188;8.602;2022-09-27T05:49:03;9.83;;;2.30;;
66739;SDS011;53653;52.188;8.602;2022-09-27T05:51:29;7.10;;;2.60;;
66739;SDS011;53653;52.188;8.602;2022-09-27T05:53:54;10.93;;;2.67;;
66739;SDS011;53653;52.188;8.602;2022-09-27T05:56:20;8.93;;;2.47;;
66739;SDS011;53653;52.188;8.602;2022-09-27T05:58:45;12.37;;;2.73;;
66739;SDS011;53653;52.188;8.602;2022-09-27T06:01:11;8.37;;;2.23;;
66739;SDS011;53653;52.188;8.602;2022-09-27T06:03:36;7.32;;;2.58;;
66739;SDS011;53653;52.188;8.602;2022-09-27T06:06:03;9.90;;;2.40;;
66739;SDS011;53653;52.188;8.602;2022-09-27T06:08:35;7.80;;;2.65;;
66739;SDS011;53653;52.188;8.602;2022-09-27T06:11:06;8.40;;;2.35;;
66739;SDS011;53653;52.188;8.602;2022-09-27T06:13:34;6.28;;;2.53;;
66739;SDS011;53653;52.188;8.602;2022-09-27T06:16:06;11.43;;;2.20;;
66739;SDS011;53653;52.188;8.602;2022-09-27T06:18:34;8.50;;;2.60;;
66739;SDS011;53653;52.188;8.602;2022-09-27T06:21:00;12.60;;;3.00;;
66739;SDS011;53653;52.188;8.602;2022-09-27T06:23:28;8.18;;;2.90;;
66739;SDS011;53653;52.188;8.602;2022-09-27T06:26:04;10.82;;;3.80;;
66739;SDS011;53653;52.188;8.602;2022-09-27T06:28:32;7.28;;;3.10;;
66739;SDS011;53653;52.188;8.602;2022-09-27T06:30:59;11.37;;;2.50;;
66739;SDS011;53653;52.188;8.602;2022-09-27T06:33:25;7.97;;;2.80;;
66739;SDS011;53653;52.188;8.602;2022-09-27T06:35:54;11.52;;;3.30;;
66739;SDS011;53653;52.188;8.602;2022-09-27T06:38:20;7.22;;;2.30;;
66739;SDS011;53653;52.188;8.602;2022-09-27T06:40:46;7.53;;;2.07;;
66739;SDS011;53653;52.188;8.602;2022-09-27T06:43:15;7.00;;;2.20;;
66739;SDS011;53653;52.188;8.602;2022-09-27T06:45:42;7.37;;;1.90;;
66739;SDS011;53653;52.188;8.602;2022-09-27T06:48:08;9.48;;;2.33;;
66739;SDS011;53653;52.188;8.602;2022-09-27T06:50:37;5.45;;;1.70;;
66739;SDS011;53653;52.188;8.602;2022-09-27T06:53:04;11.88;;;2.25;;
66739;SDS011;53653;52.188;8.602;2022-09-27T06:55:30;7.60;;;2.00;;
66739;SDS011;53653;52.188;8.602;2022-09-27T06:57:56;9.00;;;1.92;;
66739;SDS011;53653;52.188;8.602;2022-09-27T07:00:43;9.45;;;1.85;;
66739;SDS011;53653;52.188;8.602;2022-09-27T07:03:11;9.30;;;1.63;;
66739;SDS011;53653;52.188;8.602;2022-09-27T07:05:38;8.05;;;1.80;;
66739;SDS011;53653;52.188;8.602;2022-09-27T07:08:05;6.68;;;1.95;;
66739;SDS011;53653;52.188;8.602;2022-09-27T07:10:33;9.55;;;1.90;;
66739;SDS011;53653;52.188;8.602;2022-09-27T07:13:03;6.57;;;1.70;;
66739;SDS011;53653;52.188;8.602;2022-09-27T07:15:33;5.90;;;1.65;;
66739;SDS011;53653;52.188;8.602;2022-09-27T07:18:03;6.60;;;1.70;;
66739;SDS011;53653;52.188;8.602;2022-09-27T07:20:31;6.85;;;1.60;;
66739;SDS011;53653;52.188;8.602;2022-09-27T07:22:57;6.63;;;1.88;;
66739;SDS011;53653;52.188;8.602;2022-09-27T07:25:23;7.63;;;1.90;;
66739;SDS011;53653;52.188;8.602;2022-09-27T07:27:50;7.78;;;2.00;;
66739;SDS011;53653;52.188;8.602;2022-09-27T07:30:19;6.93;;;1.98;;
66739;SDS011;53653;52.188;8.602;2022-09-27T07:32:45;5.55;;;1.70;;
66739;SDS011;53653;52.188;8.602;2022-09-27T07:35:11;5.07;;;1.42;;
66739;SDS011;53653;52.188;8.602;2022-09-27T07:37:41;5.97;;;1.60;;
66739;SDS011;53653;52.188;8.602;2022-09-27T07:40:07;6.03;;;1.60;;
66739;SDS011;53653;52.188;8.602;2022-09-27T07:42:34;4.80;;;1.52;;
66739;SDS011;53653;52.188;8.602;2022-09-27T07:45:05;5.85;;;1.48;;
66739;SDS011;53653;52.188;8.602;2022-09-27T07:47:32;5.97;;;1.52;;
66739;SDS011;53653;52.188;8.602;2022-09-27T07:49:58;7.13;;;1.50;;
66739;SDS011;53653;52.188;8.602;2022-09-27T07:52:23;5.40;;;1.40;;
66739;SDS011;53653;52.188;8.602;2022-09-27T07:54:49;5.57;;;1.40;;
66739;SDS011;53653;52.188;8.602;2022-09-27T07:57:14;9.40;;;1.80;;
66739;SDS011;53653;52.188;8.602;2022-09-27T07:59:41;10.30;;;1.80;;
66739;SDS011;53653;52.188;8.602;2022-09-27T08:02:14;4.95;;;1.30;;
66739;SDS011;53653;52.188;8.602;2022-09-27T08:04:40;6.33;;;1.40;;
66739;SDS011;53653;52.188;8.602;2022-09-27T08:07:11;5.45;;;1.25;;
66739;SDS011;53653;52.188;8.602;2022-09-27T08:09:36;4.97;;;1.33;;
66739;SDS011;53653;52.188;8.602;2022-09-27T08:12:02;6.87;;;1.67;;
66739;SDS011;53653;52.188;8.602;2022-09-27T08:14:28;5.75;;;1.63;;
66739;SDS011;53653;52.188;8.602;2022-09-27T08:16:54;6.63;;;1.67;;
66739;SDS011;53653;52.188;8.602;2022-09-27T08:19:20;6.43;;;1.30;;
66739;SDS011;53653;52.188;8.602;2022-09-27T08:21:46;7.13;;;1.55;;
66739;SDS011;53653;52.188;8.602;2022-09-27T08:24:12;6.47;;;1.40;;
66739;SDS011;53653;52.188;8.602;2022-09-27T08:26:38;6.00;;;1.65;;
66739;SDS011;53653;52.188;8.602;2022-09-27T08:29:03;5.00;;;1.70;;
66739;SDS011;53653;52.188;8.602;2022-09-27T08:31:29;5.72;;;1.40;;
66739;SDS011;53653;52.188;8.602;2022-09-27T08:33:54;6.17;;;1.70;;
66739;SDS011;53653;52.188;8.602;2022-09-27T08:36:22;7.28;;;1.40;;
66739;SDS011;53653;52.188;8.602;2022-09-27T08:38:51;6.15;;;1.55;;
66739;SDS011;53653;52.188;8.602;2022-09-27T08:44:03;6.57;;;1.63;;
66739;SDS011;53653;52.188;8.602;2022-09-27T08:52:15;5.18;;;1.88;;
66739;SDS011;53653;52.188;8.602;2022-09-27T08:54:44;3.77;;;1.10;;
66739;SDS011;53653;52.188;8.602;2022-09-27T08:57:12;7.30;;;1.45;;
66739;SDS011;53653;52.188;8.602;2022-09-27T08:59:42;5.75;;;1.15;;
66739;SDS011;53653;52.188;8.602;2022-09-27T09:02:18;6.07;;;1.10;;
66739;SDS011;53653;52.188;8.602;2022-09-27T09:04:47;10.15;;;1.77;;
66739;SDS011;53653;52.188;8.602;2022-09-27T09:12:30;7.07;;;1.53;;
66739;SDS011;53653;52.188;8.602;2022-09-27T09:15:21;7.07;;;1.40;;
66739;SDS011;53653;52.188;8.602;2022-09-27T09:18:48;9.38;;;1.52;;
66739;SDS011;53653;52.188;8.602;2022-09-27T09:24:12;4.28;;;1.00;;
66739;SDS011;53653;52.188;8.602;2022-09-27T09:31:51;7.18;;;1.30;;
66739;SDS011;53653;52.188;8.602;2022-09-27T09:34:22;7.88;;;1.83;;
66739;SDS011;53653;52.188;8.602;2022-09-27T09:37:22;6.78;;;1.67;;
66739;SDS011;53653;52.188;8.602;2022-09-27T09:43:09;5.55;;;1.70;;
66739;SDS011;53653;52.188;8.602;2022-09-27T09:45:39;7.70;;;1.63;;
66739;SDS011;53653;52.188;8.602;2022-09-27T09:50:40;8.38;;;1.73;;
66739;SDS011;53653;52.188;8.602;2022-09-27T09:55:39;7.65;;;1.90;;
66739;SDS011;53653;52.188;8.602;2022-09-27T09:58:19;8.02;;;1.70;;
66739;SDS011;53653;52.188;8.602;2022-09-27T10:00:49;5.15;;;1.23;;
66739;SDS011;53653;52.188;8.602;2022-09-27T10:03:17;7.95;;;1.40;;
66739;SDS011;53653;52.188;8.602;2022-09-27T10:05:43;4.97;;;1.43;;
66739;SDS011;53653;52.188;8.602;2022-09-27T10:08:19;5.70;;;1.13;;
66739;SDS011;53653;52.188;8.602;2022-09-27T10:10:46;4.65;;;1.08;;
66739;SDS011;53653;52.188;8.602;2022-09-27T10:13:16;10.80;;;1.27;;
66739;SDS011;53653;52.188;8.602;2022-09-27T10:15:46;4.87;;;1.13;;
66739;SDS011;53653;52.188;8.602;2022-09-27T10:18:19;5.57;;;1.00;;
66739;SDS011;53653;52.188;8.602;2022-09-27T10:20:49;3.95;;;1.00;;
66739;SDS011;53653;52.188;8.602;2022-09-27T10:23:20;5.40;;;1.00;;
66739;SDS011;53653;52.188;8.602;2022-09-27T10:25:55;5.53;;;0.90;;
66739;SDS011;53653;52.188;8.602;2022-09-27T10:31:10;6.07;;;1.20;;
66739;SDS011;53653;52.188;8.602;2022-09-27T10:33:38;4.15;;;1.17;;
66739;SDS011;53653;52.188;8.602;2022-09-27T10:36:26;6.25;;;1.20;;
66739;SDS011;53653;52.188;8.602;2022-09-27T10:38:57;5.10;;;1.10;;
66739;SDS011;53653;52.188;8.602;2022-09-27T10:41:43;4.82;;;0.90;;
66739;SDS011;53653;52.188;8.602;2022-09-27T10:46:40;4.93;;;1.50;;
66739;SDS011;53653;52.188;8.602;2022-09-27T10:49:08;4.25;;;0.80;;
66739;SDS011;53653;52.188;8.602;2022-09-27T10:51:59;3.90;;;0.90;;
66739;SDS011;53653;52.188;8.602;2022-09-27T10:54:34;5.47;;;0.95;;
66739;SDS011;53653;52.188;8.602;2022-09-27T10:59:28;5.57;;;0.77;;
66739;SDS011;53653;52.188;8.602;2022-09-27T11:01:57;3.65;;;0.90;;
66739;SDS011;53653;52.188;8.602;2022-09-27T11:04:31;4.70;;;1.10;;
66739;SDS011;53653;52.188;8.602;2022-09-27T11:09:48;5.93;;;1.23;;
66739;SDS011;53653;52.188;8.602;2022-09-27T11:12:19;3.75;;;1.10;;
66739;SDS011;53653;52.188;8.602;2022-09-27T11:15:03;5.38;;;1.27;;
66739;SDS011;53653;52.188;8.602;2022-09-27T11:20:16;5.90;;;1.40;;
66739;SDS011;53653;52.188;8.602;2022-09-27T11:28:31;5.10;;;1.30;;
66739;SDS011;53653;52.188;8.602;2022-09-27T11:57:58;3.83;;;1.10;;
66739;SDS011;53653;52.188;8.602;2022-09-27T12:00:54;4.55;;;1.08;;
66739;SDS011;53653;52.188;8.602;2022-09-27T12:06:22;5.40;;;1.60;;
66739;SDS011;53653;52.188;8.602;2022-09-27T12:11:53;4.17;;;1.10;;
66739;SDS011;53653;52.188;8.602;2022-09-27T12:17:04;4.85;;;1.30;;
66739;SDS011;53653;52.188;8.602;2022-09-27T12:19:36;4.90;;;1.20;;
66739;SDS011;53653;52.188;8.602;2022-09-27T12:22:06;6.07;;;1.30;;
66739;SDS011;53653;52.188;8.602;2022-09-27T12:24:39;5.70;;;1.23;;
66739;SDS011;53653;52.188;8.602;2022-09-27T12:27:07;4.93;;;1.10;;
66739;SDS011;53653;52.188;8.602;2022-09-27T12:29:38;4.50;;;1.30;;
66739;SDS011;53653;52.188;8.602;2022-09-27T12:32:09;4.10;;;1.30;;
66739;SDS011;53653;52.188;8.602;2022-09-27T12:34:55;4.03;;;0.85;;
66739;SDS011;53653;52.188;8.602;2022-09-27T12:37:28;3.93;;;1.00;;
66739;SDS011;53653;52.188;8.602;2022-09-27T12:42:43;5.00;;;1.20;;
66739;SDS011;53653;52.188;8.602;2022-09-27T12:51:21;4.03;;;1.20;;
66739;SDS011;53653;52.188;8.602;2022-09-27T12:59:38;4.65;;;1.23;;
66739;SDS011;53653;52.188;8.602;2022-09-27T13:14:05;7.13;;;1.88;;
66739;SDS011;53653;52.188;8.602;2022-09-27T13:16:43;11.05;;;1.00;;
66739;SDS011;53653;52.188;8.602;2022-09-27T13:25:01;2.63;;;0.60;;
66739;SDS011;53653;52.188;8.602;2022-09-27T13:32:32;2.80;;;0.70;;
66739;SDS011;53653;52.188;8.602;2022-09-27T13:40:20;3.15;;;0.80;;
66739;SDS011;53653;52.188;8.602;2022-09-27T13:45:23;2.77;;;0.77;;
66739;SDS011;53653;52.188;8.602;2022-09-27T13:47:53;3.17;;;0.80;;
66739;SDS011;53653;52.188;8.602;2022-09-27T13:53:07;3.88;;;1.02;;
66739;SDS011;53653;52.188;8.602;2022-09-27T13:55:48;7.43;;;1.20;;
66739;SDS011;53653;52.188;8.602;2022-09-27T14:00:50;4.28;;;1.30;;
66739;SDS011;53653;52.188;8.602;2022-09-27T14:05:56;6.07;;;1.58;;
66739;SDS011;53653;52.188;8.602;2022-09-27T14:10:53;4.37;;;1.40;;
66739;SDS011;53653;52.188;8.602;2022-09-27T14:13:20;4.75;;;1.50;;
66739;SDS011;53653;52.188;8.602;2022-09-27T14:15:48;5.53;;;1.73;;
66739;SDS011;53653;52.188;8.602;2022-09-27T14:18:14;6.85;;;2.22;;
66739;SDS011;53653;52.188;8.602;2022-09-27T14:20:43;5.70;;;2.00;;
66739;SDS011;53653;52.188;8.602;2022-09-27T14:23:15;7.47;;;2.45;;
66739;SDS011;53653;52.188;8.602;2022-09-27T14:25:45;7.05;;;2.30;;
66739;SDS011;53653;52.188;8.602;2022-09-27T14:28:22;4.95;;;1.90;;
66739;SDS011;53653;52.188;8.602;2022-09-27T14:31:06;7.37;;;1.97;;
66739;SDS011;53653;52.188;8.602;2022-09-27T14:33:42;6.22;;;1.80;;
66739;SDS011;53653;52.188;8.602;2022-09-27T14:36:16;4.60;;;1.33;;
66739;SDS011;53653;52.188;8.602;2022-09-27T14:41:47;6.00;;;1.85;;
66739;SDS011;53653;52.188;8.602;2022-09-27T14:44:16;5.10;;;1.40;;
66739;SDS011;53653;52.188;8.602;2022-09-27T14:46:43;5.40;;;1.73;;
66739;SDS011;53653;52.188;8.602;2022-09-27T14:49:22;6.40;;;1.73;;
66739;SDS011;53653;52.188;8.602;2022-09-27T14:51:49;6.25;;;1.40;;
66739;SDS011;53653;52.188;8.602;2022-09-27T14:54:19;7.75;;;1.50;;
66739;SDS011;53653;52.188;8.602;2022-09-27T14:56:51;6.65;;;2.15;;
66739;SDS011;53653;52.188;8.602;2022-09-27T14:59:26;5.82;;;1.60;;
66739;SDS011;53653;52.188;8.602;2022-09-27T15:01:58;5.17;;;1.70;;
66739;SDS011;53653;52.188;8.602;2022-09-27T15:04:27;5.15;;;1.65;;
66739;SDS011;53653;52.188;8.602;2022-09-27T15:06:55;6.85;;;1.42;;
66739;SDS011;53653;52.188;8.602;2022-09-27T15:09:22;5.68;;;1.27;;
66739;SDS011;53653;52.188;8.602;2022-09-27T15:11:52;6.03;;;1.42;;
66739;SDS011;53653;52.188;8.602;2022-09-27T15:14:19;5.57;;;1.47;;
66739;SDS011;53653;52.188;8.602;2022-09-27T15:16:46;4.72;;;1.38;;
66739;SDS011;53653;52.188;8.602;2022-09-27T15:21:43;7.18;;;1.80;;
66739;SDS011;53653;52.188;8.602;2022-09-27T15:27:23;5.93;;;1.50;;
66739;SDS011;53653;52.188;8.602;2022-09-27T15:29:50;5.20;;;1.42;;
66739;SDS011;53653;52.188;8.602;2022-09-27T15:32:19;4.07;;;1.00;;
66739;SDS011;53653;52.188;8.602;2022-09-27T15:34:46;3.17;;;0.80;;
66739;SDS011;53653;52.188;8.602;2022-09-27T15:37:22;3.77;;;1.20;;
66739;SDS011;53653;52.188;8.602;2022-09-27T15:42:57;4.47;;;0.85;;
66739;SDS011;53653;52.188;8.602;2022-09-27T15:45:28;2.88;;;0.73;;
66739;SDS011;53653;52.188;8.602;2022-09-27T15:47:55;2.63;;;0.73;;
66739;SDS011;53653;52.188;8.602;2022-09-27T15:50:40;4.25;;;0.90;;
66739;SDS011;53653;52.188;8.602;2022-09-27T15:53:06;4.30;;;1.20;;
66739;SDS011;53653;52.188;8.602;2022-09-27T15:55:34;4.68;;;1.30;;
66739;SDS011;53653;52.188;8.602;2022-09-27T15:58:05;5.25;;;1.40;;
66739;SDS011;53653;52.188;8.602;2022-09-27T16:00:34;5.60;;;1.43;;
66739;SDS011;53653;52.188;8.602;2022-09-27T16:03:00;4.65;;;1.30;;
66739;SDS011;53653;52.188;8.602;2022-09-27T16:05:26;4.47;;;1.33;;
66739;SDS011;53653;52.188;8.602;2022-09-27T16:07:53;5.68;;;1.40;;
66739;SDS011;53653;52.188;8.602;2022-09-27T16:10:20;5.07;;;1.33;;
66739;SDS011;53653;52.188;8.602;2022-09-27T16:12:49;4.80;;;1.50;;
66739;SDS011;53653;52.188;8.602;2022-09-27T16:15:15;5.18;;;1.27;;
66739;SDS011;53653;52.188;8.602;2022-09-27T16:17:41;5.50;;;1.53;;
66739;SDS011;53653;52.188;8.602;2022-09-27T16:20:14;6.53;;;2.38;;
66739;SDS011;53653;52.188;8.602;2022-09-27T16:22:42;6.20;;;2.10;;
66739;SDS011;53653;52.188;8.602;2022-09-27T16:25:08;6.00;;;2.10;;
66739;SDS011;53653;52.188;8.602;2022-09-27T16:27:33;6.68;;;2.47;;
66739;SDS011;53653;52.188;8.602;2022-09-27T16:29:59;9.00;;;4.37;;
66739;SDS011;53653;52.188;8.602;2022-09-27T16:32:25;7.55;;;3.67;;
66739;SDS011;53653;52.188;8.602;2022-09-27T16:34:50;7.47;;;3.27;;
66739;SDS011;53653;52.188;8.602;2022-09-27T16:37:16;9.95;;;3.65;;
66739;SDS011;53653;52.188;8.602;2022-09-27T16:39:42;6.67;;;2.90;;
66739;SDS011;53653;52.188;8.602;2022-09-27T16:42:07;5.73;;;2.60;;
66739;SDS011;53653;52.188;8.602;2022-09-27T16:44:33;7.07;;;3.05;;
66739;SDS011;53653;52.188;8.602;2022-09-27T16:47:00;9.05;;;3.85;;
66739;SDS011;53653;52.188;8.602;2022-09-27T16:49:26;8.52;;;4.30;;
66739;SDS011;53653;52.188;8.602;2022-09-27T16:52:09;10.98;;;6.10;;
66739;SDS011;53653;52.188;8.602;2022-09-27T16:54:35;10.00;;;5.87;;
66739;SDS011;53653;52.188;8.602;2022-09-27T16:57:00;11.47;;;5.77;;
66739;SDS011;53653;52.188;8.602;2022-09-27T16:59:26;15.47;;;6.70;;
66739;SDS011;53653;52.188;8.602;2022-09-27T17:01:51;14.13;;;6.07;;
66739;SDS011;53653;52.188;8.602;2022-09-27T17:04:21;10.70;;;5.20;;
66739;SDS011;53653;52.188;8.602;2022-09-27T17:06:46;21.40;;;10.40;;
66739;SDS011;53653;52.188;8.602;2022-09-27T17:09:12;14.87;;;8.03;;
66739;SDS011;53653;52.188;8.602;2022-09-27T17:11:37;40.53;;;18.33;;
66739;SDS011;53653;52.188;8.602;2022-09-27T17:14:02;72.15;;;21.35;;
66739;SDS011;53653;52.188;8.602;2022-09-27T17:16:28;42.23;;;15.17;;
66739;SDS011;53653;52.188;8.602;2022-09-27T17:18:53;14.90;;;6.80;;
66739;SDS011;53653;52.188;8.602;2022-09-27T17:21:19;14.30;;;6.78;;
66739;SDS011;53653;52.188;8.602;2022-09-27T17:23:45;12.43;;;6.80;;
66739;SDS011;53653;52.188;8.602;2022-09-27T17:26:15;12.73;;;6.27;;
66739;SDS011;53653;52.188;8.602;2022-09-27T17:28:45;16.08;;;7.90;;
66739;SDS011;53653;52.188;8.602;2022-09-27T17:31:11;11.00;;;6.53;;
66739;SDS011;53653;52.188;8.602;2022-09-27T17:33:40;15.02;;;6.85;;
66739;SDS011;53653;52.188;8.602;2022-09-27T17:36:09;12.10;;;5.93;;
66739;SDS011;53653;52.188;8.602;2022-09-27T17:38:37;15.63;;;7.82;;
66739;SDS011;53653;52.188;8.602;2022-09-27T17:41:04;12.73;;;6.50;;
66739;SDS011;53653;52.188;8.602;2022-09-27T17:43:32;9.63;;;5.32;;
66739;SDS011;53653;52.188;8.602;2022-09-27T17:46:06;10.02;;;5.68;;
66739;SDS011;53653;52.188;8.602;2022-09-27T17:48:33;11.63;;;4.97;;
66739;SDS011;53653;52.188;8.602;2022-09-27T17:51:18;12.60;;;5.60;;
66739;SDS011;53653;52.188;8.602;2022-09-27T17:53:44;11.73;;;6.25;;
66739;SDS011;53653;52.188;8.602;2022-09-27T17:56:10;14.27;;;6.20;;
66739;SDS011;53653;52.188;8.602;2022-09-27T17:58:36;15.30;;;5.90;;
66739;SDS011;53653;52.188;8.602;2022-09-27T18:01:03;13.32;;;5.53;;
66739;SDS011;53653;52.188;8.602;2022-09-27T18:03:30;14.75;;;5.35;;
66739;SDS011;53653;52.188;8.602;2022-09-27T18:05:56;10.33;;;4.40;;
66739;SDS011;53653;52.188;8.602;2022-09-27T18:08:22;12.40;;;3.85;;
66739;SDS011;53653;52.188;8.602;2022-09-27T18:10:48;9.50;;;4.03;;
66739;SDS011;53653;52.188;8.602;2022-09-27T18:13:14;10.40;;;3.67;;
66739;SDS011;53653;52.188;8.602;2022-09-27T18:15:40;10.23;;;3.45;;
66739;SDS011;53653;52.188;8.602;2022-09-27T18:18:07;10.88;;;3.53;;
66739;SDS011;53653;52.188;8.602;2022-09-27T18:20:33;7.63;;;3.00;;
66739;SDS011;53653;52.188;8.602;2022-09-27T18:22:58;9.05;;;2.92;;
66739;SDS011;53653;52.188;8.602;2022-09-27T18:25:24;8.67;;;3.27;;